Time;durP1;ratioP1;P1;durP2;ratioP2;P2;SDS_P1;SDS_P2;PMS_P1;PMS_P2;Temp;Humidity;BMP_temperature;BMP_pressure;BME280_temperature;BME280_humidity;BME280_pressure;Samples;Min_cycle;Max_cycle;Signal;HPM_P1;HPM_P2
2021/08/30 00:00:32;;;;;;;;;3.00;3.00;;;;;18.91;60.18;101710.69;5044854;28;45407;-80
2021/08/30 00:02:57;;;;;;;;;8.00;4.50;;;;;18.90;60.29;101709.78;5062837;28;45564;-83
2021/08/30 00:05:23;;;;;;;;;1.25;1.00;;;;;18.88;60.19;101709.75;5062844;28;45322;-85
2021/08/30 00:07:49;;;;;;;;;3.00;3.00;;;;;18.87;60.03;101696.59;5062191;28;45511;-83
2021/08/30 00:10:14;;;;;;;;;2.00;2.00;;;;;18.85;60.01;101704.41;5044906;28;45390;-80
2021/08/30 00:12:40;;;;;;;;;2.75;2.00;;;;;18.88;60.33;101708.88;5065810;28;45441;-80
2021/08/30 00:15:08;;;;;;;;;2.00;2.00;;;;;18.88;60.46;101703.63;5062553;28;45986;-82
2021/08/30 00:17:34;;;;;;;;;7.75;5.25;;;;;18.88;60.34;101704.50;5063069;28;45672;-82
2021/08/30 00:20:00;;;;;;;;;3.75;3.75;;;;;18.89;60.31;101697.53;5063052;28;45326;-81
2021/08/30 00:22:26;;;;;;;;;2.25;2.25;;;;;18.88;60.24;101699.25;5063606;28;45538;-83
2021/08/30 00:24:51;;;;;;;;;4.00;3.25;;;;;18.90;60.20;101699.28;5064732;28;46292;-82
2021/08/30 00:27:17;;;;;;;;;5.25;4.50;;;;;18.93;60.24;101701.09;5062280;28;45413;-82
2021/08/30 00:29:42;;;;;;;;;7.75;5.00;;;;;18.93;59.96;101706.34;5061574;28;45473;-82
2021/08/30 00:32:08;;;;;;;;;6.00;5.00;;;;;18.91;59.88;101698.44;5062409;28;45527;-82
2021/08/30 00:34:33;;;;;;;;;4.75;4.75;;;;;18.88;60.54;101694.00;5062407;28;45835;-82
2021/08/30 00:36:59;;;;;;;;;6.25;5.00;;;;;18.90;60.15;101695.78;5062131;28;45367;-81
2021/08/30 00:39:25;;;;;;;;;7.25;5.00;;;;;18.88;60.38;101701.00;5062469;28;45405;-82
2021/08/30 00:41:53;;;;;;;;;6.25;6.25;;;;;18.85;60.03;101693.91;5066032;28;45251;-81
2021/08/30 00:44:19;;;;;;;;;9.75;8.00;;;;;18.87;60.10;101689.59;5045263;28;46354;-82
2021/08/30 00:46:44;;;;;;;;;5.50;5.00;;;;;18.85;60.56;101683.41;5060256;28;45459;-82
2021/08/30 00:49:10;;;;;;;;;6.50;5.50;;;;;18.92;60.27;101688.84;5059171;28;45446;-82
2021/08/30 00:51:36;;;;;;;;;8.00;5.00;;;;;18.93;60.29;101688.91;5060082;28;45486;-82
2021/08/30 00:54:02;;;;;;;;;5.00;4.50;;;;;18.93;60.41;101683.66;5059315;28;46214;-81
2021/08/30 00:56:29;;;;;;;;;6.25;5.25;;;;;18.91;60.53;101684.44;5059656;28;45713;-83
2021/08/30 00:58:55;;;;;;;;;5.75;4.25;;;;;18.90;60.76;101678.28;5059541;28;45496;-82
2021/08/30 01:01:21;;;;;;;;;5.25;4.00;;;;;18.91;60.82;101684.44;5058564;28;45533;-84
2021/08/30 01:03:48;;;;;;;;;8.25;6.00;;;;;18.90;61.03;101682.66;5058164;28;46084;-82
2021/08/30 01:06:27;;;;;;;;;4.00;4.00;;;;;18.90;61.42;101677.41;5058671;28;45779;-82
2021/08/30 01:09:06;;;;;;;;;5.75;5.75;;;;;18.86;61.87;101689.56;5054671;28;45483;-82
2021/08/30 01:11:39;;;;;;;;;4.50;4.50;;;;;18.80;62.24;101676.28;5054826;28;45349;-82
2021/08/30 01:14:08;;;;;;;;;6.25;5.75;;;;;18.77;62.07;101687.59;5059276;28;45303;-82
2021/08/30 01:16:35;;;;;;;;;9.50;7.25;;;;;18.76;62.14;101682.31;5058770;28;45713;-83
2021/08/30 01:19:04;;;;;;;;;7.75;7.00;;;;;18.75;62.44;101676.16;5058480;28;45409;-83
2021/08/30 01:21:38;;;;;;;;;9.75;7.25;;;;;18.77;62.58;101676.22;5058748;28;45231;-83
2021/08/30 01:24:07;;;;;;;;;7.00;6.00;;;;;18.77;62.44;101674.47;5058175;28;46047;-81
2021/08/30 01:26:40;;;;;;;;;8.75;6.00;;;;;18.77;62.49;101669.22;5058054;28;45886;-82
2021/08/30 01:29:28;;;;;;;;;7.25;6.50;;;;;18.81;62.63;101665.84;5058503;28;45363;-81
2021/08/30 01:32:18;;;;;;;;;9.25;8.00;;;;;18.83;62.42;101669.41;5057701;28;45340;-82
2021/08/30 01:34:45;;;;;;;;;8.50;7.75;;;;;18.83;62.70;101666.78;5057796;28;45493;-82
2021/08/30 01:37:10;;;;;;;;;8.00;7.25;;;;;18.81;62.29;101667.56;5058421;28;45746;-82
2021/08/30 01:39:37;;;;;;;;;8.50;8.50;;;;;18.81;62.99;101670.19;5059543;28;45215;-83
2021/08/30 01:42:04;;;;;;;;;10.25;9.25;;;;;18.76;62.89;101666.59;5063455;28;45585;-82
2021/08/30 01:44:31;;;;;;;;;8.50;7.50;;;;;18.70;63.33;101659.44;5059238;28;45468;-82
2021/08/30 01:46:58;;;;;;;;;9.00;8.50;;;;;18.71;63.23;101664.72;5058085;28;45741;-81
2021/08/30 01:49:25;;;;;;;;;8.00;8.00;;;;;18.72;63.51;101660.38;5057442;28;45246;-82
2021/08/30 01:51:52;;;;;;;;;7.25;7.25;;;;;18.72;63.30;101658.63;5058552;28;45447;-82
2021/08/30 01:54:19;;;;;;;;;10.25;8.00;;;;;18.72;63.32;101663.00;5055987;28;46349;-82
2021/08/30 01:56:48;;;;;;;;;8.00;6.00;;;;;18.71;63.62;101662.09;5057882;28;45414;-83
2021/08/30 02:02:05;;;;;;;;;11.75;7.75;;;;;18.69;64.29;101658.53;5057958;28;45474;-83
2021/08/30 02:04:30;;;;;;;;;10.25;9.25;;;;;18.66;64.62;101654.97;5058701;28;45422;-85
2021/08/30 02:06:56;;;;;;;;;6.00;6.00;;;;;18.64;64.91;101660.19;5061856;28;45338;-83
2021/08/30 02:09:21;;;;;;;;;12.75;7.50;;;;;18.66;64.97;101655.88;5063158;28;45309;-83
2021/08/30 02:11:47;;;;;;;;;7.75;7.25;;;;;18.65;64.61;101661.97;5059851;28;45407;-82
2021/08/30 02:14:13;;;;;;;;;10.50;9.50;;;;;18.67;65.31;101664.59;5058305;28;46025;-81
2021/08/30 02:16:39;;;;;;;;;5.00;4.50;;;;;18.66;65.23;101663.75;5058210;28;45309;-82
2021/08/30 02:19:41;;;;;;;;;9.50;7.00;;;;;18.67;65.40;101660.25;5058083;28;45299;-83
2021/08/30 02:22:15;;;;;;;;;9.50;6.75;;;;;18.69;65.64;101657.66;5045096;28;45708;-81
2021/08/30 02:25:04;;;;;;;;;7.75;7.25;;;;;18.70;65.11;101659.44;5057920;28;45404;-82
2021/08/30 02:27:41;;;;;;;;;11.75;8.50;;;;;18.72;65.03;101656.00;5059060;28;45609;-84
2021/08/30 02:30:13;;;;;;;;;6.50;6.50;;;;;18.74;65.67;101652.53;5058070;28;45471;-85
2021/08/30 02:32:42;;;;;;;;;7.25;5.25;;;;;18.72;65.37;101660.38;5059203;28;45300;-83
2021/08/30 02:35:09;;;;;;;;;10.25;7.25;;;;;18.71;65.27;101659.47;5057983;28;46079;-82
2021/08/30 02:37:40;;;;;;;;;6.75;6.50;;;;;18.70;65.58;101652.44;5060318;28;45335;-82
2021/08/30 02:40:09;;;;;;;;;13.00;8.00;;;;;18.70;65.80;101649.81;5063720;28;45252;-85
2021/08/30 02:42:35;;;;;;;;;8.00;6.25;;;;;18.67;65.63;101649.78;5059861;28;45320;-86
2021/08/30 02:45:05;;;;;;;;;8.75;8.75;;;;;18.61;66.08;101648.72;5057350;28;45355;-86
2021/08/30 02:47:31;;;;;;;;;6.00;5.00;;;;;18.57;65.86;101655.66;5057151;28;45766;-86
2021/08/30 02:49:59;;;;;;;;;9.50;8.00;;;;;18.56;66.01;101657.34;5057326;28;45459;-85
2021/08/30 02:52:26;;;;;;;;;6.00;6.00;;;;;18.55;66.31;101658.19;5057650;28;45434;-85
2021/08/30 02:54:53;;;;;;;;;7.00;7.00;;;;;18.52;66.61;101652.88;5057083;28;45908;-85
2021/08/30 02:57:20;;;;;;;;;8.75;7.50;;;;;18.55;66.71;101642.47;5058063;28;45275;-86
2021/08/30 02:59:50;;;;;;;;;10.25;8.25;;;;;18.56;66.46;101638.13;5057821;28;45242;-85
2021/08/30 03:02:17;;;;;;;;;8.75;7.75;;;;;18.58;66.88;101643.41;5057926;28;45499;-85
2021/08/30 03:04:44;;;;;;;;;8.50;7.00;;;;;18.55;66.75;101642.47;5057449;28;45810;-85
2021/08/30 03:07:11;;;;;;;;;10.00;6.75;;;;;18.51;66.75;101639.72;5062623;28;45320;-86
2021/08/30 03:09:37;;;;;;;;;7.50;7.50;;;;;18.45;66.78;101648.31;5061084;28;45249;-86
2021/08/30 03:12:04;;;;;;;;;6.75;6.75;;;;;18.47;67.14;101643.13;5058382;28;45487;-85
2021/08/30 03:14:31;;;;;;;;;9.75;7.25;;;;;18.47;67.23;101641.41;5056903;28;46281;-85
2021/08/30 03:17:04;;;;;;;;;13.50;9.50;;;;;18.47;67.23;101644.00;5056646;28;45959;-85
2021/08/30 03:19:31;;;;;;;;;7.50;6.75;;;;;18.46;67.11;101642.25;5057010;28;45370;-85
2021/08/30 03:21:59;;;;;;;;;8.00;8.00;;;;;18.47;67.19;101641.41;5056858;28;45360;-85
2021/08/30 03:24:26;;;;;;;;;9.50;9.50;;;;;18.47;67.30;101641.41;5056733;28;45630;-85
2021/08/30 03:26:54;;;;;;;;;8.50;8.50;;;;;18.47;67.65;101638.78;5057177;28;45649;-84
2021/08/30 03:29:22;;;;;;;;;10.75;8.25;;;;;18.45;67.64;101637.84;5056877;28;45453;-85
2021/08/30 03:31:51;;;;;;;;;7.75;7.75;;;;;18.46;67.95;101639.63;5058232;28;45237;-85
2021/08/30 03:34:20;;;;;;;;;10.25;7.75;;;;;18.47;67.56;101636.16;5060286;28;46410;-82
2021/08/30 03:36:47;;;;;;;;;8.00;6.50;;;;;18.50;67.31;101637.94;5062925;28;45352;-85
2021/08/30 03:39:13;;;;;;;;;8.00;7.75;;;;;18.51;67.31;101635.38;5058970;28;45333;-84
2021/08/30 03:41:40;;;;;;;;;10.00;7.75;;;;;18.54;67.47;101635.44;5057003;28;45337;-84
2021/08/30 03:44:06;;;;;;;;;5.25;5.25;;;;;18.58;67.51;101630.28;5056445;28;45280;-85
2021/08/30 03:46:32;;;;;;;;;8.00;7.00;;;;;18.60;67.67;101632.09;5038245;28;45174;-84
2021/08/30 03:48:59;;;;;;;;;11.50;9.25;;;;;18.59;67.53;101634.69;5056670;28;45338;-82
2021/08/30 03:51:26;;;;;;;;;8.00;7.50;;;;;18.58;67.34;101633.78;5058236;28;45261;-81
2021/08/30 03:53:54;;;;;;;;;11.75;8.75;;;;;18.62;67.34;101642.63;5058070;28;45257;-82
2021/08/30 03:56:21;;;;;;;;;11.75;9.25;;;;;18.62;67.33;101640.00;5056984;28;45786;-82
2021/08/30 03:58:49;;;;;;;;;10.25;10.25;;;;;18.65;67.65;101638.34;5038551;28;45338;-82
2021/08/30 04:01:23;;;;;;;;;7.75;7.25;;;;;18.65;67.34;101637.44;5056970;28;45511;-82
2021/08/30 04:03:51;;;;;;;;;7.75;7.75;;;;;18.68;67.01;101642.78;5056561;28;45947;-82
2021/08/30 04:06:16;;;;;;;;;9.00;8.00;;;;;18.68;67.17;101630.53;5061394;28;45765;-82
2021/08/30 04:08:42;;;;;;;;;9.00;8.75;;;;;18.71;67.53;101625.38;5060688;28;45360;-82
2021/08/30 04:11:13;;;;;;;;;11.25;9.00;;;;;18.72;67.22;101635.03;5061003;28;45574;-86
2021/08/30 04:13:40;;;;;;;;;10.50;9.75;;;;;18.76;67.38;101638.59;5056399;28;45381;-84
2021/08/30 04:16:06;;;;;;;;;11.00;11.00;;;;;18.77;67.14;101627.25;5056051;28;45342;-83
2021/08/30 04:18:31;;;;;;;;;9.00;8.75;;;;;18.78;67.02;101634.28;5059021;28;45346;-83
2021/08/30 04:20:57;;;;;;;;;13.75;11.75;;;;;18.80;66.88;101632.59;5041555;28;45478;-83
2021/08/30 04:23:23;;;;;;;;;15.75;13.00;;;;;18.80;67.31;101636.94;5059181;28;45391;-88
2021/08/30 04:25:48;;;;;;;;;13.00;10.25;;;;;18.80;67.59;101634.31;5059728;28;45348;-86
2021/08/30 04:28:14;;;;;;;;;15.50;11.25;;;;;18.82;67.19;101637.84;5059557;28;45367;-85
2021/08/30 04:30:39;;;;;;;;;14.25;14.00;;;;;18.85;67.07;101646.69;5060684;28;45338;-86
2021/08/30 04:33:10;;;;;;;;;12.75;9.00;;;;;18.88;67.19;101638.03;5059695;28;45983;-87
2021/08/30 04:35:36;;;;;;;;;13.75;11.00;;;;;18.90;67.27;101640.66;5066567;28;45245;-87
2021/08/30 04:38:02;;;;;;;;;17.00;12.25;;;;;18.88;67.02;101641.53;5063097;28;45267;-87
2021/08/30 04:40:27;;;;;;;;;11.75;11.75;;;;;18.88;66.97;101638.03;5060501;28;45318;-88
2021/08/30 04:42:53;;;;;;;;;14.25;13.00;;;;;18.83;67.17;101637.00;5059221;28;45602;-88
2021/08/30 04:45:19;;;;;;;;;19.75;11.75;;;;;18.83;67.47;101640.53;5059738;28;45170;-87
2021/08/30 04:47:44;;;;;;;;;14.00;12.00;;;;;18.85;67.18;101643.19;5060114;28;45372;-82
2021/08/30 04:50:10;;;;;;;;;13.50;12.50;;;;;18.86;67.28;101643.22;5059565;28;45226;-83
2021/08/30 04:52:36;;;;;;;;;16.25;14.00;;;;;18.87;67.55;101646.75;5058673;28;45726;-83
2021/08/30 04:55:02;;;;;;;;;8.25;8.25;;;;;18.90;67.22;101643.28;5059060;28;45751;-82
2021/08/30 04:57:27;;;;;;;;;10.75;10.75;;;;;18.92;67.47;101649.47;5063248;28;45378;-86
2021/08/30 04:59:53;;;;;;;;;16.25;15.50;;;;;18.90;67.61;101649.41;5065144;28;45395;-86
2021/08/30 05:02:18;;;;;;;;;17.25;13.25;;;;;18.89;67.60;101655.53;5067004;28;45956;-85
2021/08/30 05:04:44;;;;;;;;;17.25;15.00;;;;;18.91;67.35;101659.06;5067563;28;45157;-84
2021/08/30 05:07:09;;;;;;;;;21.50;16.25;;;;;18.94;67.39;101659.19;5060503;28;45259;-85
2021/08/30 05:09:35;;;;;;;;;15.75;14.50;;;;;18.93;67.46;101653.88;5059787;28;45561;-85
2021/08/30 05:12:01;;;;;;;;;16.00;14.00;;;;;18.93;67.08;101661.75;5058684;28;46315;-85
2021/08/30 05:14:26;;;;;;;;;17.00;16.00;;;;;18.92;67.49;101658.22;5060291;28;45324;-85
2021/08/30 05:16:52;;;;;;;;;16.50;14.25;;;;;18.93;67.25;101667.00;5059116;28;45311;-85
2021/08/30 05:19:17;;;;;;;;;18.50;14.75;;;;;18.95;67.27;101663.59;5058978;28;45316;-86
2021/08/30 05:21:43;;;;;;;;;20.50;14.75;;;;;18.96;67.44;101664.47;5058492;28;45481;-86
2021/08/30 05:24:09;;;;;;;;;18.25;14.00;;;;;18.98;67.43;101662.75;5058339;28;45327;-83
2021/08/30 05:26:36;;;;;;;;;17.00;16.00;;;;;18.99;67.20;101664.53;5058588;28;45336;-83
2021/08/30 05:29:05;;;;;;;;;19.75;16.50;;;;;18.99;67.28;101661.91;5058502;28;45334;-84
2021/08/30 05:31:30;;;;;;;;;22.00;17.75;;;;;19.01;67.55;101670.72;5058436;28;45314;-83
2021/08/30 05:34:00;;;;;;;;;25.50;20.00;;;;;19.03;67.08;101667.28;5063174;28;45494;-83
2021/08/30 05:36:28;;;;;;;;;22.50;17.25;;;;;19.03;67.35;101663.78;5062048;28;45228;-84
2021/08/30 05:38:54;;;;;;;;;21.75;18.25;;;;;19.05;67.57;101667.31;5058397;28;45529;-83
2021/08/30 05:41:20;;;;;;;;;23.75;20.75;;;;;19.10;67.04;101672.69;5063014;28;46228;-83
2021/08/30 05:43:46;;;;;;;;;26.50;24.25;;;;;19.10;67.29;101676.19;5059918;28;45398;-83
2021/08/30 05:46:18;;;;;;;;;19.50;19.00;;;;;19.10;66.93;101675.31;5056642;28;45545;-82
2021/08/30 05:48:46;;;;;;;;;22.25;17.75;;;;;19.10;67.25;101672.69;5058798;28;45471;-82
2021/08/30 05:51:12;;;;;;;;;20.75;17.00;;;;;19.09;67.32;101660.41;5065049;28;45881;-84
2021/08/30 05:53:38;;;;;;;;;25.75;21.50;;;;;19.11;67.05;101669.22;5059449;28;45988;-84
2021/08/30 05:56:05;;;;;;;;;22.25;18.50;;;;;19.09;67.59;101671.78;5041149;28;45512;-84
2021/08/30 05:58:30;;;;;;;;;22.00;17.75;;;;;19.10;67.33;101667.44;5038865;28;45719;-84
2021/08/30 06:00:56;;;;;;;;;21.00;20.00;;;;;19.12;66.87;101669.22;5057239;28;45512;-82
2021/08/30 06:03:21;;;;;;;;;20.75;18.75;;;;;19.15;66.77;101676.28;5065305;28;45158;-83
2021/08/30 06:05:48;;;;;;;;;24.50;23.25;;;;;19.16;67.32;101684.22;5061891;28;45235;-81
2021/08/30 06:08:14;;;;;;;;;19.50;17.50;;;;;19.18;67.31;101677.25;5061347;28;45637;-83
2021/08/30 06:10:40;;;;;;;;;22.25;19.50;;;;;19.19;67.08;101683.38;5059307;28;46315;-80
2021/08/30 06:13:08;;;;;;;;;22.25;17.50;;;;;19.21;67.20;101686.03;5063536;28;45341;-82
2021/08/30 06:15:34;;;;;;;;;23.25;21.75;;;;;19.23;67.07;101687.84;5063398;28;45441;-87
2021/08/30 06:18:00;;;;;;;;;25.00;20.50;;;;;19.24;66.60;101680.88;5061806;28;45646;-85
2021/08/30 06:20:25;;;;;;;;;22.00;20.00;;;;;19.25;67.00;101680.91;5043484;28;45367;-84
2021/08/30 06:22:51;;;;;;;;;21.25;20.75;;;;;19.27;66.95;101688.81;5066915;28;45340;-84
2021/08/30 06:25:17;;;;;;;;;25.50;19.50;;;;;19.28;66.88;101686.22;5062672;28;45522;-83
2021/08/30 06:27:42;;;;;;;;;26.75;22.25;;;;;19.27;66.76;101687.06;5041709;28;45653;-83
2021/08/30 06:30:08;;;;;;;;;23.25;19.50;;;;;19.30;66.29;101688.88;5057271;28;45536;-80
2021/08/30 06:32:34;;;;;;;;;25.75;23.75;;;;;19.34;66.27;101694.22;5060693;28;45276;-81
2021/08/30 06:34:59;;;;;;;;;23.75;20.25;;;;;19.38;66.22;101697.84;5057416;28;45442;-81
2021/08/30 06:37:25;;;;;;;;;26.00;17.50;;;;;19.41;65.99;101703.13;5059253;28;45578;-81
2021/08/30 06:39:51;;;;;;;;;19.50;17.00;;;;;19.44;66.19;101695.34;5056653;28;45597;-82
2021/08/30 06:42:16;;;;;;;;;22.25;19.75;;;;;19.49;66.03;101698.06;5057528;28;45388;-82
2021/08/30 06:44:42;;;;;;;;;20.25;18.00;;;;;19.52;66.16;101708.66;5056963;28;45481;-81
2021/08/30 06:47:07;;;;;;;;;22.75;19.50;;;;;19.52;65.48;101690.25;5057921;28;45304;-85
2021/08/30 06:49:33;;;;;;;;;27.75;22.00;;;;;19.54;66.01;101688.56;5055807;28;46365;-84
2021/08/30 06:51:59;;;;;;;;;26.25;20.75;;;;;19.56;65.97;101684.19;5056182;28;45867;-83
2021/08/30 06:54:24;;;;;;;;;23.00;21.25;;;;;19.61;65.45;101686.91;5057032;28;45333;-85
2021/08/30 06:56:50;;;;;;;;;24.50;20.25;;;;;19.63;65.80;101686.13;5059877;28;45355;-85
2021/08/30 06:59:15;;;;;;;;;26.00;22.25;;;;;19.67;65.41;101687.06;5060730;28;45320;-88
2021/08/30 07:01:41;;;;;;;;;24.50;21.75;;;;;19.69;65.10;101684.47;5064359;28;45284;-82
2021/08/30 07:04:07;;;;;;;;;24.75;20.25;;;;;19.70;64.59;101689.78;5061516;28;45410;-83
2021/08/30 07:06:32;;;;;;;;;18.50;18.50;;;;;19.72;64.63;101695.06;5057555;28;45516;-83
2021/08/30 07:09:01;;;;;;;;;20.00;17.00;;;;;19.72;64.82;101692.41;5057114;28;45842;-82
2021/08/30 07:11:27;;;;;;;;;22.75;18.50;;;;;19.72;64.81;101705.56;5056495;28;45442;-82
2021/08/30 07:13:53;;;;;;;;;18.50;17.00;;;;;19.72;64.69;101706.44;5056027;28;45554;-82
2021/08/30 07:16:18;;;;;;;;;23.50;21.25;;;;;19.73;64.71;101708.22;5056956;28;45383;-83
2021/08/30 07:18:44;;;;;;;;;18.00;16.75;;;;;19.77;64.84;101709.16;5056607;28;46006;-81
2021/08/30 07:21:09;;;;;;;;;23.75;16.75;;;;;19.77;64.80;101710.06;5055050;28;45306;-82
2021/08/30 07:23:36;;;;;;;;;22.25;21.00;;;;;19.82;64.07;101717.13;5056678;28;45367;-81
2021/08/30 07:26:03;;;;;;;;;17.25;15.75;;;;;19.82;64.13;101712.78;5058354;28;45435;-82
2021/08/30 07:28:28;;;;;;;;;24.25;18.50;;;;;19.82;64.26;101718.03;5042302;28;45545;-81
2021/08/30 07:30:54;;;;;;;;;18.00;15.25;;;;;19.84;64.37;101718.97;5065803;28;45379;-83
2021/08/30 07:33:19;;;;;;;;;13.00;12.25;;;;;19.88;64.21;101717.31;5058612;28;45358;-84
2021/08/30 07:35:45;;;;;;;;;20.25;17.25;;;;;19.91;64.23;101723.50;5056946;28;45610;-83
2021/08/30 07:38:11;;;;;;;;;17.50;14.75;;;;;19.95;64.05;101724.47;5056707;28;46070;-81
2021/08/30 07:40:36;;;;;;;;;20.50;15.75;;;;;20.01;63.27;101724.59;5059152;28;45386;-82
2021/08/30 07:43:02;;;;;;;;;16.50;15.25;;;;;20.07;63.17;101727.34;5060292;28;45359;-81
2021/08/30 07:45:28;;;;;;;;;17.50;16.75;;;;;20.09;63.03;101730.00;5059999;28;45410;-85
2021/08/30 07:47:54;;;;;;;;;23.50;16.75;;;;;20.12;62.79;101735.31;5058412;28;45914;-84
2021/08/30 07:50:21;;;;;;;;;17.25;15.75;;;;;20.16;63.00;101737.16;5056369;28;45228;-83
2021/08/30 07:52:46;;;;;;;;;25.75;17.00;;;;;20.23;62.51;101730.28;5059859;28;45466;-84
2021/08/30 07:55:13;;;;;;;;;22.25;18.50;;;;;20.26;62.54;101731.22;5059939;28;45574;-83
2021/08/30 07:57:40;;;;;;;;;16.50;15.00;;;;;20.28;62.49;101728.63;5061900;28;45448;-82
2021/08/30 08:00:06;;;;;;;;;24.50;17.75;;;;;20.33;62.05;101739.22;5067808;28;45386;-85
2021/08/30 08:02:31;;;;;;;;;17.50;16.00;;;;;20.35;61.86;101735.78;5061836;28;45303;-83
2021/08/30 08:04:57;;;;;;;;;15.00;15.00;;;;;20.40;61.58;101739.38;5060566;28;45680;-83
2021/08/30 08:07:23;;;;;;;;;19.75;18.25;;;;;20.48;61.24;101743.88;5059952;28;45467;-85
2021/08/30 08:09:48;;;;;;;;;17.75;14.50;;;;;20.55;61.17;101743.16;5062175;28;45367;-85
2021/08/30 08:12:14;;;;;;;;;14.75;12.25;;;;;20.61;61.19;101745.03;5068869;28;45161;-85
2021/08/30 08:14:39;;;;;;;;;15.75;15.00;;;;;20.65;60.41;101755.63;5062524;28;45312;-84
2021/08/30 08:17:05;;;;;;;;;16.25;13.25;;;;;20.67;59.85;101753.91;5060814;28;46028;-82
2021/08/30 08:19:31;;;;;;;;;15.75;15.00;;;;;20.67;59.92;101747.75;5060577;28;45351;-82
2021/08/30 08:21:57;;;;;;;;;17.50;13.50;;;;;20.70;60.21;101748.69;5059696;28;45166;-83
2021/08/30 08:24:25;;;;;;;;;17.00;12.50;;;;;20.73;59.80;101746.13;5041603;28;45248;-81
2021/08/30 08:26:51;;;;;;;;;17.00;16.00;;;;;20.77;60.00;101752.34;5061868;28;45568;-82
2021/08/30 08:29:17;;;;;;;;;15.25;15.25;;;;;20.77;59.66;101756.75;5065847;28;45895;-83
2021/08/30 08:31:43;;;;;;;;;17.75;15.00;;;;;20.81;59.95;101751.56;5060527;28;45401;-83
2021/08/30 08:34:08;;;;;;;;;14.75;14.25;;;;;20.84;60.00;101763.88;5060004;28;45383;-82
2021/08/30 08:36:34;;;;;;;;;17.75;15.50;;;;;20.83;60.00;101764.72;5059601;28;45344;-84
2021/08/30 08:39:00;;;;;;;;;15.00;15.00;;;;;20.81;59.58;101769.09;5041267;28;45332;-84
2021/08/30 08:41:25;;;;;;;;;15.25;14.50;;;;;20.78;59.33;101769.91;5059254;28;45281;-81
2021/08/30 08:43:54;;;;;;;;;18.25;14.25;;;;;20.81;59.23;101769.97;5059451;28;45239;-83
2021/08/30 08:46:20;;;;;;;;;14.25;13.50;;;;;20.86;59.51;101767.44;5058999;28;46187;-82
2021/08/30 08:48:47;;;;;;;;;13.25;13.25;;;;;20.90;59.22;101758.72;5059030;28;45347;-81
2021/08/30 08:51:13;;;;;;;;;16.00;15.25;;;;;20.95;59.13;101764.94;5058915;28;45382;-81
2021/08/30 08:53:39;;;;;;;;;14.50;12.75;;;;;21.01;58.29;101754.50;5059439;28;45631;-81
2021/08/30 08:56:05;;;;;;;;;15.25;12.25;;;;;21.08;58.56;101767.81;5064045;28;46018;-83
2021/08/30 08:58:30;;;;;;;;;15.75;14.25;;;;;21.07;58.44;101764.25;5066450;28;45419;-82
2021/08/30 09:01:10;;;;;;;;;15.75;14.50;;;;;21.10;58.07;101763.44;5043308;28;45333;-83
2021/08/30 09:03:44;;;;;;;;;14.50;11.50;;;;;21.10;57.44;101764.31;5060101;28;45399;-83
2021/08/30 09:06:09;;;;;;;;;16.25;14.50;;;;;21.14;57.54;101765.25;5060064;28;46154;-81
2021/08/30 09:08:41;;;;;;;;;14.25;13.00;;;;;21.18;57.72;101765.31;5061179;28;45355;-80
2021/08/30 09:11:15;;;;;;;;;14.75;13.50;;;;;21.23;57.26;101765.41;5060866;28;45253;-81
2021/08/30 09:13:55;;;;;;;;;15.75;13.00;;;;;21.27;57.20;101769.00;5061391;28;45363;-81
2021/08/30 09:16:22;;;;;;;;;15.75;13.25;;;;;21.27;56.62;101775.13;5059923;28;45486;-81
2021/08/30 09:18:48;;;;;;;;;13.50;13.00;;;;;21.27;56.34;101766.34;5041134;28;45765;-82
2021/08/30 09:21:18;;;;;;;;;13.00;11.75;;;;;21.30;56.79;101772.56;5059681;28;45402;-82
2021/08/30 09:23:46;;;;;;;;;18.50;16.50;;;;;21.37;56.80;101772.63;5059149;28;45530;-82
2021/08/30 09:26:19;;;;;;;;;18.00;15.50;;;;;21.44;56.73;101777.13;5041018;28;47633;-81
2021/08/30 09:28:53;;;;;;;;;14.75;14.75;;;;;21.55;56.09;101782.56;5059892;28;45419;-83
2021/08/30 09:31:20;;;;;;;;;17.75;13.00;;;;;21.57;56.18;101779.09;5058845;28;45393;-83
2021/08/30 09:33:51;;;;;;;;;18.25;14.00;;;;;21.61;55.89;101774.78;5058769;28;45427;-83
2021/08/30 09:36:18;;;;;;;;;15.50;13.00;;;;;21.65;56.02;101782.75;5058626;28;46099;-83
2021/08/30 09:38:43;;;;;;;;;17.75;14.75;;;;;21.74;55.55;101775.84;5058586;28;45200;-83
2021/08/30 09:41:11;;;;;;;;;13.50;13.50;;;;;21.84;55.90;101779.47;5045180;28;45403;-81
2021/08/30 09:43:37;;;;;;;;;13.75;12.00;;;;;21.91;55.12;101769.06;5063715;28;45320;-83
2021/08/30 09:46:05;;;;;;;;;16.50;12.25;;;;;21.84;54.78;101772.47;5060198;28;45361;-84
2021/08/30 09:48:33;;;;;;;;;15.50;13.75;;;;;21.82;54.65;101775.94;5059896;28;45363;-85
2021/08/30 09:51:04;;;;;;;;;17.00;13.50;;;;;21.75;54.69;101777.63;5061761;28;45437;-84
2021/08/30 09:53:32;;;;;;;;;13.50;11.25;;;;;21.67;54.96;101777.53;5063349;28;45749;-83
2021/08/30 09:55:59;;;;;;;;;15.00;14.00;;;;;21.62;55.13;101777.44;5060988;28;46056;-82
2021/08/30 09:58:29;;;;;;;;;17.25;14.00;;;;;21.64;54.15;101772.19;5060475;28;45458;-82
2021/08/30 10:01:04;;;;;;;;;11.50;11.50;;;;;21.55;54.36;101766.75;5058793;28;45314;-82
2021/08/30 10:03:39;;;;;;;;;12.75;12.75;;;;;21.52;54.51;101770.25;5058819;28;45459;-83
2021/08/30 10:06:05;;;;;;;;;14.50;13.25;;;;;21.45;53.75;101764.00;5058914;28;45535;-84
2021/08/30 10:08:31;;;;;;;;;13.50;11.00;;;;;21.48;54.28;101760.50;5063217;28;45740;-85
2021/08/30 10:10:58;;;;;;;;;15.75;12.00;;;;;21.59;54.01;101764.22;5061011;28;45383;-84
2021/08/30 10:13:23;;;;;;;;;16.00;15.00;;;;;21.70;53.89;101763.50;5059281;28;45308;-84
2021/08/30 10:15:51;;;;;;;;;11.00;11.00;;;;;21.82;53.90;101766.31;5057640;28;45585;-84
2021/08/30 10:18:18;;;;;;;;;15.50;12.50;;;;;21.87;54.08;101769.00;5060005;28;45762;-85
2021/08/30 10:20:45;;;;;;;;;10.50;9.75;;;;;21.83;54.00;101767.16;5064436;28;45312;-83
2021/08/30 10:23:11;;;;;;;;;12.50;10.75;;;;;21.85;53.56;101765.44;5069779;28;44833;-84
2021/08/30 10:25:39;;;;;;;;;16.25;12.00;;;;;21.88;54.00;101755.81;5062670;28;45387;-85
2021/08/30 10:28:08;;;;;;;;;15.75;11.25;;;;;21.95;53.96;101757.69;5042271;28;45694;-86
2021/08/30 10:30:36;;;;;;;;;12.00;11.00;;;;;22.07;53.42;101749.03;5061765;28;45273;-84
2021/08/30 10:33:05;;;;;;;;;13.50;11.00;;;;;22.19;53.10;101750.03;5061350;28;45653;-85
2021/08/30 10:35:34;;;;;;;;;14.25;13.75;;;;;22.23;52.85;101750.09;5040891;28;45504;-83
2021/08/30 10:38:06;;;;;;;;;12.25;10.25;;;;;22.22;52.51;101750.97;5040677;28;45255;-84
2021/08/30 10:40:37;;;;;;;;;12.50;11.50;;;;;22.21;52.14;101756.22;5061046;28;45422;-82
2021/08/30 10:43:13;;;;;;;;;11.50;9.50;;;;;22.18;52.51;101748.28;5060483;28;45169;-82
2021/08/30 10:45:43;;;;;;;;;11.75;11.25;;;;;22.08;52.57;101753.44;5058873;28;45422;-81
2021/08/30 10:48:15;;;;;;;;;9.00;7.25;;;;;22.15;52.79;101750.88;5059337;28;45273;-81
2021/08/30 10:50:47;;;;;;;;;14.00;14.00;;;;;22.25;52.90;101747.47;5065611;28;45343;-83
2021/08/30 10:53:23;;;;;;;;;13.00;9.50;;;;;22.32;52.45;101754.59;5059676;28;45315;-82
2021/08/30 10:55:53;;;;;;;;;11.00;10.50;;;;;22.39;52.59;101745.88;5060521;28;45184;-80
2021/08/30 10:58:25;;;;;;;;;12.00;11.75;;;;;22.45;52.05;101752.13;5057534;28;45654;-82
2021/08/30 11:00:52;;;;;;;;;15.25;13.75;;;;;22.47;52.44;101755.66;5059378;28;45351;-83
2021/08/30 11:03:39;;;;;;;;;16.25;13.00;;;;;22.58;51.91;101756.66;5056892;28;45429;-82
2021/08/30 11:06:12;;;;;;;;;14.25;12.25;;;;;22.70;51.75;101755.91;5056404;28;45272;-83
2021/08/30 11:08:40;;;;;;;;;13.50;13.50;;;;;22.80;50.75;101762.13;5057099;28;45348;-80
2021/08/30 11:11:11;;;;;;;;;13.00;11.75;;;;;22.83;50.91;101755.16;5056985;28;45270;-80
2021/08/30 11:13:38;;;;;;;;;14.00;11.50;;;;;22.91;50.44;101754.31;5057416;28;45525;-80
2021/08/30 11:16:18;;;;;;;;;14.00;12.50;;;;;23.02;50.46;101760.59;5057187;28;45499;-82
2021/08/30 11:18:52;;;;;;;;;14.00;11.25;;;;;23.04;50.16;101748.28;5059458;28;45770;-80